Aérodrome :
LOGIN :

S'inscrire | Disclaimer

   EN    FR    IT 

 










Légende :    VFR   VFR Marginal   IFR   IFR Intensif   IFR Très Intensif
Visi : 
Plafond : 
>= 8 km
>= 3000ft
5 à 8 km
1000 à 3000 ft
1500m à 5 km
500 à 1000 ft
800 à 1500m
200 à 500 ft
< 800m
< 200 ft
Symboles :   Orages  Brouillard  Fortes neiges  Fortes précipitations  Vent > 20 kt
SIGMETs :   Divers  Orages  Givrage  Turbulence  Onde Orograph.  Cendres Volcan.






- Altitude de l'aérodrome : 348 ft
- Code IATA : STN


EGSS - London Stansted

DERNIER METAR :
  • 021720Z AUTO 22014KT 9999 NCD 20/09 Q1016

METARs EXPIRÉS :
  • 021650Z AUTO 23016KT 9999 NCD 20/10 Q1017
  • 021620Z AUTO 22015KT 9999 NCD 21/10 Q1017
  • 021550Z AUTO 23013KT 9999 NCD 21/09 Q1017
  • 021520Z AUTO 23014KT 9999 NCD 21/10 Q1017
  • 021450Z AUTO 22014KT 9999 BKN046 21/10 Q1017

TAF TAF EGSS
Valide du 02 à 18h jusqu'au 04 à 00h UTC


021700Z 0218/0324 26009KT 9999 SCT040
TEMPO 0218/0220 7000 SHRA
PROB30
TEMPO 0218/0220 24015G25KT 3500 +SHRA
PROB30 0303/0306 4000 BR MIFG
PROB30
TEMPO 0310/0317 8000 SHRA
ATIS : +44 1279 669 325



MET'MAP, la Météo Aéronautique d'un coup d'oeil ! - Copyright ORBIFLY Décembre 2007 - Disclaimer

ORBIFLY MET'MAP TEAM :

Programmation & Développement : Alexandra Zaïnal
Sur une idée originale de : Baudouin d'Aumeries
Soutien technique & logistique : Manuel Goepfert
Assistance : Marc-Olivier Méhu




SOURCES & CREDITS :

   NOAA